createdAt,value
2018-03-02T00:00:55.531Z,28.27
2018-03-02T00:03:23.433Z,32.28
2018-03-02T00:05:51.385Z,28.08
2018-03-02T00:08:19.280Z,27.62
2018-03-02T00:10:47.226Z,28.90
2018-03-02T00:13:20.510Z,25.25
2018-03-02T00:15:48.460Z,24.55
2018-03-02T00:18:16.468Z,24.12
2018-03-02T00:20:45.243Z,23.80
2018-03-02T00:23:13.949Z,34.40
2018-03-02T00:25:41.905Z,26.50
2018-03-02T00:28:09.806Z,28.77
2018-03-02T00:30:37.749Z,24.27
2018-03-02T00:33:06.417Z,29.23
2018-03-02T00:35:34.364Z,24.87
2018-03-02T00:38:02.273Z,28.10
2018-03-02T00:40:30.264Z,31.52
2018-03-02T00:42:58.231Z,30.92
2018-03-02T00:45:26.165Z,33.20
2018-03-02T00:47:54.087Z,26.77
2018-03-02T00:50:22.036Z,26.85
2018-03-02T00:52:53.882Z,24.90
2018-03-02T00:55:22.586Z,25.48
2018-03-02T00:57:50.477Z,31.05
2018-03-02T01:00:18.429Z,26.48
2018-03-02T01:02:46.470Z,25.05
2018-03-02T01:05:14.432Z,28.42
2018-03-02T01:07:42.435Z,23.55
2018-03-02T01:10:10.424Z,22.48
2018-03-02T01:12:38.360Z,34.45
2018-03-02T01:15:07.060Z,27.55
2018-03-02T01:17:34.937Z,28.05
2018-03-02T01:20:02.834Z,31.45
2018-03-02T01:22:30.768Z,27.98
2018-03-02T01:24:58.674Z,28.23
2018-03-02T01:27:26.618Z,26.83
2018-03-02T01:29:54.514Z,29.08
2018-03-02T01:32:22.509Z,30.48
2018-03-02T01:34:50.396Z,28.83
2018-03-02T01:37:18.380Z,32.00
2018-03-02T01:39:47.028Z,29.67
2018-03-02T01:42:14.963Z,30.75
2018-03-02T01:44:43.611Z,27.83
2018-03-02T01:47:12.324Z,26.62
2018-03-02T01:49:40.205Z,30.48
2018-03-02T01:52:08.207Z,31.05
2018-03-02T01:54:36.292Z,31.85
2018-03-02T01:57:04.244Z,29.17
2018-03-02T01:59:32.128Z,30.20
2018-03-02T02:02:00.058Z,29.58
2018-03-02T02:04:27.946Z,35.35
2018-03-02T02:06:55.905Z,30.70
2018-03-02T02:09:23.858Z,25.55
2018-03-02T02:11:51.803Z,27.02
2018-03-02T02:14:19.699Z,32.78
2018-03-02T02:16:47.644Z,28.70
2018-03-02T02:19:15.627Z,29.67
2018-03-02T02:21:43.568Z,29.77
2018-03-02T02:24:16.244Z,25.95
2018-03-02T02:26:44.177Z,28.12
2018-03-02T02:29:12.058Z,23.65
2018-03-02T02:31:40.004Z,27.83
2018-03-02T02:34:07.944Z,35.97
2018-03-02T02:36:35.881Z,31.08
2018-03-02T02:39:03.894Z,26.58
2018-03-02T02:41:31.852Z,33.17
2018-03-02T02:43:59.754Z,30.40
2018-03-02T02:46:27.713Z,27.30
2018-03-02T02:48:55.604Z,29.40
2018-03-02T02:51:23.545Z,31.33
2018-03-02T02:53:51.566Z,30.62
2018-03-02T02:56:19.502Z,31.87
2018-03-02T02:58:47.525Z,31.65
2018-03-02T03:01:18.824Z,28.90
2018-03-02T03:03:50.802Z,31.25
2018-03-02T03:06:22.232Z,32.28
2018-03-02T03:08:53.198Z,27.75
2018-03-02T03:11:24.507Z,37.25
2018-03-02T03:13:56.076Z,29.00
2018-03-02T03:16:27.566Z,34.88
2018-03-02T03:18:59.947Z,29.60
2018-03-02T03:21:30.948Z,30.95
2018-03-02T03:24:02.280Z,38.72
2018-03-02T03:26:33.709Z,29.10
2018-03-02T03:29:05.705Z,27.02
2018-03-02T03:31:37.223Z,34.65
2018-03-02T03:34:08.006Z,30.90
2018-03-02T03:36:39.494Z,32.60
2018-03-02T03:39:10.434Z,30.75
2018-03-02T03:41:43.106Z,32.10
2018-03-02T03:44:14.087Z,31.80
2018-03-02T03:46:45.324Z,24.37
2018-03-02T03:49:16.474Z,36.22
2018-03-02T03:51:47.474Z,31.30
2018-03-02T03:54:19.309Z,30.95
2018-03-02T03:56:47.435Z,33.20
2018-03-02T03:59:16.089Z,29.75
2018-03-02T04:01:44.022Z,26.95
2018-03-02T04:04:11.934Z,28.58
2018-03-02T04:06:39.930Z,27.50
2018-03-02T04:09:07.832Z,33.15
2018-03-02T04:11:35.768Z,27.13
2018-03-02T04:14:10.961Z,36.83
2018-03-02T04:16:38.901Z,30.50
2018-03-02T04:19:06.817Z,31.62
2018-03-02T04:21:34.748Z,38.70
2018-03-02T04:24:02.658Z,30.90
2018-03-02T04:26:30.625Z,30.15
2018-03-02T04:28:58.523Z,33.88
2018-03-02T04:31:27.257Z,33.15
2018-03-02T04:33:55.153Z,26.33
2018-03-02T04:36:23.088Z,30.58
2018-03-02T04:38:50.989Z,32.28
2018-03-02T04:41:18.941Z,28.85
2018-03-02T04:43:46.961Z,31.02
2018-03-02T04:46:15.665Z,37.35
2018-03-02T04:48:43.558Z,38.55
2018-03-02T04:51:11.493Z,29.45
2018-03-02T04:53:40.166Z,33.35
2018-03-02T04:56:08.123Z,32.83
2018-03-02T04:58:36.075Z,36.28
2018-03-02T05:01:04.035Z,34.10
2018-03-02T05:03:31.945Z,33.25
2018-03-02T05:05:59.885Z,34.65
2018-03-02T05:08:27.778Z,30.10
2018-03-02T05:10:55.671Z,61.33
2018-03-02T05:13:24.484Z,39.42
2018-03-02T05:15:52.464Z,33.67
2018-03-02T05:18:20.715Z,42.88
2018-03-02T05:20:48.623Z,33.83
2018-03-02T05:23:16.570Z,35.20
2018-03-02T05:25:44.465Z,31.60
2018-03-02T05:28:12.416Z,32.28
2018-03-02T05:30:40.318Z,31.23
2018-03-02T05:33:08.269Z,31.50
2018-03-02T05:35:36.164Z,47.72
2018-03-02T05:38:04.137Z,32.72
2018-03-02T05:40:35.367Z,32.03
2018-03-02T05:43:07.391Z,33.83
2018-03-02T05:45:35.471Z,34.55
2018-03-02T05:48:03.422Z,32.53
2018-03-02T05:50:31.369Z,34.15
2018-03-02T05:53:00.094Z,31.62
2018-03-02T05:55:28.042Z,30.77
2018-03-02T05:58:01.618Z,38.50
2018-03-02T06:00:30.715Z,37.15
2018-03-02T06:02:58.677Z,32.53
2018-03-02T06:05:26.566Z,32.65
2018-03-02T06:07:55.285Z,33.47
2018-03-02T06:10:23.190Z,27.90
2018-03-02T06:12:51.154Z,36.78
2018-03-02T06:15:19.057Z,37.00
2018-03-02T06:17:47.028Z,34.33
2018-03-02T06:20:15.713Z,31.42
2018-03-02T06:22:43.770Z,40.88
2018-03-02T06:25:11.706Z,32.95
2018-03-02T06:27:39.656Z,33.15
2018-03-02T06:30:07.629Z,28.55
2018-03-02T06:32:35.592Z,32.45
2018-03-02T06:35:03.508Z,34.10
2018-03-02T06:37:31.464Z,32.30
2018-03-02T06:39:59.396Z,36.58
2018-03-02T06:42:27.356Z,29.25
2018-03-02T06:44:56.028Z,35.42
2018-03-02T06:47:23.976Z,32.53
2018-03-02T06:49:51.864Z,31.48
2018-03-02T06:52:19.988Z,33.28
2018-03-02T06:54:47.879Z,31.58
2018-03-02T06:57:15.829Z,31.45
2018-03-02T06:59:43.778Z,26.85
2018-03-02T07:02:11.725Z,32.42
2018-03-02T07:04:39.628Z,31.40
2018-03-02T07:07:07.568Z,29.85
2018-03-02T07:09:35.448Z,25.85
2018-03-02T07:12:03.402Z,33.25
2018-03-02T07:14:31.356Z,33.80
2018-03-02T07:16:59.312Z,33.35
2018-03-02T07:19:27.207Z,33.35
2018-03-02T07:21:55.932Z,29.65
2018-03-02T07:24:23.833Z,34.90
2018-03-02T07:26:51.769Z,31.62
2018-03-02T07:29:19.667Z,31.83
2018-03-02T07:31:47.615Z,30.05
2018-03-02T07:34:15.514Z,38.10
2018-03-02T07:36:43.473Z,30.12
2018-03-02T07:39:11.356Z,30.30
2018-03-02T07:41:39.287Z,32.28
2018-03-02T07:44:07.375Z,32.03
2018-03-02T07:46:35.278Z,26.95
2018-03-02T07:49:03.209Z,32.20
2018-03-02T07:51:31.100Z,32.42
2018-03-02T07:53:59.071Z,28.40
2018-03-02T07:56:26.960Z,31.35
2018-03-02T07:58:54.898Z,32.03
2018-03-02T08:01:22.791Z,34.40
2018-03-02T08:03:50.740Z,33.13
2018-03-02T08:06:18.692Z,31.08
2018-03-02T08:08:46.619Z,35.10
2018-03-02T08:11:15.281Z,37.78
2018-03-02T08:13:43.310Z,32.10
2018-03-02T08:16:11.219Z,36.75
2018-03-02T08:18:39.204Z,27.62
2018-03-02T08:21:07.144Z,34.42
2018-03-02T08:23:35.093Z,31.85
2018-03-02T08:26:03.059Z,32.45
2018-03-02T08:28:31.078Z,34.00
2018-03-02T08:30:58.996Z,29.60
2018-03-02T08:33:26.950Z,31.33
2018-03-02T08:35:55.176Z,35.60
2018-03-02T08:38:23.120Z,35.28
2018-03-02T08:40:51.020Z,35.22
2018-03-02T08:43:26.023Z,40.22
2018-03-02T08:45:53.947Z,33.65
2018-03-02T08:48:21.857Z,38.08
2018-03-02T08:50:49.815Z,28.25
2018-03-02T08:53:17.732Z,34.65
2018-03-02T08:55:45.674Z,34.20
2018-03-02T08:58:13.591Z,33.17
2018-03-02T09:00:41.552Z,28.90
2018-03-02T09:03:09.447Z,34.22
2018-03-02T09:05:37.398Z,40.80
2018-03-02T09:08:05.295Z,32.10
2018-03-02T09:10:33.259Z,38.17
2018-03-02T09:13:05.948Z,34.53
2018-03-02T09:15:33.917Z,34.22
2018-03-02T09:18:01.834Z,33.92
2018-03-02T09:20:29.865Z,35.25
2018-03-02T09:22:57.935Z,33.45
2018-03-02T09:25:26.071Z,31.27
2018-03-02T09:27:54.074Z,34.05
2018-03-02T09:30:22.008Z,41.67
2018-03-02T09:32:51.635Z,31.50
2018-03-02T09:35:19.899Z,36.65
2018-03-02T09:37:47.780Z,35.88
2018-03-02T09:40:16.234Z,39.80
2018-03-02T09:42:45.154Z,33.80
2018-03-02T09:45:13.182Z,35.97
2018-03-02T09:47:41.069Z,38.22
2018-03-02T09:50:08.982Z,38.85
2018-03-02T09:52:36.913Z,35.55
2018-03-02T09:55:04.796Z,36.72
2018-03-02T09:57:32.730Z,33.95
2018-03-02T10:00:00.709Z,29.67
2018-03-02T10:02:30.388Z,30.15
2018-03-02T10:04:58.412Z,37.85
2018-03-02T10:07:26.351Z,33.15
2018-03-02T10:09:54.251Z,39.72
2018-03-02T10:12:23.183Z,38.88
2018-03-02T10:14:53.964Z,32.28
2018-03-02T10:17:22.073Z,35.03
2018-03-02T10:19:49.964Z,35.75
2018-03-02T10:22:17.897Z,35.00
2018-03-02T10:24:45.780Z,34.55
2018-03-02T10:27:13.825Z,33.55
2018-03-02T10:29:41.741Z,35.53
2018-03-02T10:32:09.821Z,34.60
2018-03-02T10:34:37.707Z,38.35
2018-03-02T10:37:05.615Z,30.37
2018-03-02T10:39:33.550Z,33.92
2018-03-02T10:42:01.447Z,35.13
2018-03-02T10:44:29.387Z,36.72
2018-03-02T10:46:57.273Z,30.90
2018-03-02T10:49:25.230Z,38.60
2018-03-02T10:51:53.121Z,38.85
2018-03-02T10:54:21.253Z,37.95
2018-03-02T10:56:49.143Z,37.05
2018-03-02T10:59:17.075Z,37.08
2018-03-02T11:01:50.651Z,37.50
2018-03-02T11:04:18.627Z,37.80
2018-03-02T11:06:46.513Z,33.55
2018-03-02T11:09:14.493Z,41.50
2018-03-02T11:11:42.394Z,33.33
2018-03-02T11:14:10.346Z,34.72
2018-03-02T11:16:38.275Z,32.85
2018-03-02T11:19:06.251Z,34.40
2018-03-02T11:21:34.140Z,36.17
2018-03-02T11:24:06.126Z,37.30
2018-03-02T11:26:34.022Z,36.28
2018-03-02T11:29:02.501Z,35.05
2018-03-02T11:31:30.549Z,40.70
2018-03-02T11:33:58.494Z,36.90
2018-03-02T11:36:26.430Z,36.97
2018-03-02T11:38:55.128Z,38.38
2018-03-02T11:41:23.112Z,41.33
2018-03-02T11:43:51.097Z,42.83
2018-03-02T11:46:19.007Z,36.33
2018-03-02T11:48:46.954Z,39.45
2018-03-02T11:51:15.717Z,36.22
2018-03-02T11:53:43.925Z,32.75
2018-03-02T11:56:11.810Z,38.38
2018-03-02T11:58:39.747Z,31.58
2018-03-02T12:01:07.714Z,40.10
2018-03-02T12:03:35.656Z,33.15
2018-03-02T12:06:03.540Z,37.95
2018-03-02T12:08:31.532Z,35.65
2018-03-02T12:10:59.429Z,37.58
2018-03-02T12:13:27.393Z,32.60
2018-03-02T12:15:55.313Z,44.42
2018-03-02T12:18:23.218Z,36.30
2018-03-02T12:20:51.190Z,38.38
2018-03-02T12:23:19.180Z,37.58
2018-03-02T12:25:47.135Z,38.17
2018-03-02T12:28:15.146Z,35.42
2018-03-02T12:30:43.107Z,46.63
2018-03-02T12:33:11.766Z,40.45
2018-03-02T12:35:39.729Z,37.95
2018-03-02T12:38:07.663Z,42.28
2018-03-02T12:40:35.630Z,45.83
2018-03-02T12:43:04.497Z,35.95
2018-03-02T12:45:32.749Z,38.38
2018-03-02T12:48:00.642Z,46.13
2018-03-02T12:50:28.615Z,36.50
2018-03-02T12:53:07.239Z,36.75
2018-03-02T12:55:38.671Z,35.58
2018-03-02T12:58:06.602Z,42.92
2018-03-02T13:00:34.612Z,31.80
2018-03-02T13:03:02.576Z,34.00
2018-03-02T13:05:30.526Z,33.47
2018-03-02T13:07:58.430Z,40.17
2018-03-02T13:10:26.416Z,41.17
2018-03-02T13:13:00.550Z,44.03
2018-03-02T13:15:29.267Z,36.03
2018-03-02T13:17:57.146Z,37.08
2018-03-02T13:20:25.125Z,36.42
2018-03-02T13:22:53.048Z,39.38
2018-03-02T13:25:21.008Z,41.65
2018-03-02T13:28:00.550Z,44.83
2018-03-02T13:30:28.552Z,42.17
2018-03-02T13:33:08.166Z,40.10
2018-03-02T13:35:36.962Z,38.30
2018-03-02T13:38:04.934Z,44.40
2018-03-02T13:40:45.514Z,40.25
2018-03-02T13:43:13.411Z,36.83
2018-03-02T13:45:41.357Z,40.20
2018-03-02T13:51:12.354Z,40.15
2018-03-02T13:53:41.052Z,41.05
2018-03-02T13:59:05.955Z,41.92
2018-03-02T14:01:33.940Z,36.88
2018-03-02T14:04:13.535Z,44.50
2018-03-02T14:06:41.533Z,41.75
2018-03-02T14:09:09.448Z,42.58
2018-03-02T14:11:37.497Z,40.95
2018-03-02T14:14:05.416Z,43.72
2018-03-02T14:16:33.400Z,41.42
2018-03-02T14:19:01.340Z,38.67
2018-03-02T14:21:29.306Z,45.22
2018-03-02T14:24:05.840Z,41.37
2018-03-02T14:26:34.577Z,39.67
2018-03-02T14:29:02.576Z,48.15
2018-03-02T14:31:30.588Z,41.60
2018-03-02T14:33:58.491Z,39.65
2018-03-02T14:36:26.465Z,43.20
2018-03-02T14:38:54.364Z,42.13
2018-03-02T14:41:22.334Z,44.55
2018-03-02T14:43:50.303Z,41.90
2018-03-02T14:46:18.278Z,43.45
2018-03-02T14:48:46.257Z,42.10
2018-03-02T14:51:14.996Z,52.47
2018-03-02T14:53:43.058Z,43.13
2018-03-02T14:56:11.029Z,45.92
2018-03-02T14:58:38.942Z,41.20
2018-03-02T15:01:06.989Z,38.22
2018-03-02T15:03:34.898Z,39.88
2018-03-02T15:06:02.885Z,37.00
2018-03-02T15:08:30.869Z,41.17
2018-03-02T15:10:59.167Z,40.53
2018-03-02T15:13:27.082Z,38.45
2018-03-02T15:15:55.074Z,37.65
2018-03-02T15:18:23.022Z,49.92
2018-03-02T15:20:50.987Z,37.88
2018-03-02T15:23:18.972Z,42.45
2018-03-02T15:25:47.753Z,38.83
2018-03-02T15:28:15.697Z,45.80
2018-03-02T15:30:43.608Z,42.28
2018-03-02T15:33:11.565Z,37.28
2018-03-02T15:35:40.254Z,41.28
2018-03-02T15:38:09.027Z,38.35
2018-03-02T15:40:36.938Z,40.40
2018-03-02T15:43:04.919Z,39.63
2018-03-02T15:45:32.851Z,41.00
2018-03-02T15:48:01.622Z,39.50
2018-03-02T15:50:29.545Z,37.28
2018-03-02T15:53:01.134Z,45.33
2018-03-02T15:55:29.062Z,37.85
2018-03-02T15:57:57.047Z,34.90
2018-03-02T16:00:24.975Z,39.45
2018-03-02T16:02:53.738Z,39.75
2018-03-02T16:05:21.656Z,41.95
2018-03-02T16:07:49.633Z,36.55
2018-03-02T16:10:17.560Z,40.83
2018-03-02T16:12:45.532Z,41.88
2018-03-02T16:15:13.503Z,38.95
2018-03-02T16:17:41.525Z,42.67
2018-03-02T16:20:09.466Z,40.42
2018-03-02T16:22:39.554Z,40.03
2018-03-02T16:25:08.276Z,34.67
2018-03-02T16:27:36.280Z,45.90
2018-03-02T16:30:04.260Z,42.50
2018-03-02T16:32:32.240Z,37.13
2018-03-02T16:35:00.199Z,40.10
2018-03-02T16:37:28.171Z,48.15
2018-03-02T16:39:56.088Z,37.58
2018-03-02T16:42:24.006Z,38.10
2018-03-02T16:44:52.027Z,44.70
2018-03-02T16:47:19.934Z,42.38
2018-03-02T16:49:47.901Z,45.80
2018-03-02T16:52:15.858Z,39.35
2018-03-02T16:54:43.852Z,40.40
2018-03-02T16:57:11.758Z,42.08
2018-03-02T16:59:39.737Z,43.65
2018-03-02T17:02:07.641Z,45.45
2018-03-02T17:04:35.675Z,53.28
2018-03-02T17:07:03.624Z,47.00
2018-03-02T17:09:31.593Z,45.08
2018-03-02T17:11:59.518Z,50.78
2018-03-02T17:14:28.462Z,43.70
2018-03-02T17:16:56.461Z,44.63
2018-03-02T17:19:25.199Z,52.13
2018-03-02T17:21:53.123Z,50.25
2018-03-02T17:24:21.116Z,51.83
2018-03-02T17:26:49.141Z,45.78
2018-03-02T17:29:17.032Z,48.60
2018-03-02T17:31:45.792Z,52.30
2018-03-02T17:34:13.758Z,47.58
2018-03-02T17:36:41.694Z,48.08
2018-03-02T17:39:09.661Z,46.72
2018-03-02T17:41:37.586Z,53.30
2018-03-02T17:44:05.629Z,47.08
2018-03-02T17:46:33.548Z,44.15
2018-03-02T17:49:01.550Z,47.30
2018-03-02T17:51:29.530Z,46.33
2018-03-02T17:53:57.463Z,41.95
2018-03-02T17:56:25.494Z,45.65
2018-03-02T17:58:53.401Z,48.70
2018-03-02T18:01:21.387Z,48.80
2018-03-02T18:03:49.421Z,45.20
2018-03-02T18:06:17.442Z,45.75
2018-03-02T18:08:45.381Z,51.53
2018-03-02T18:11:13.420Z,52.17
2018-03-02T18:13:41.541Z,43.47
2018-03-02T18:16:09.506Z,48.33
2018-03-02T18:18:38.001Z,49.75
2018-03-02T18:21:06.036Z,48.55
2018-03-02T18:23:34.768Z,48.97
2018-03-02T18:26:02.706Z,52.97
2018-03-02T18:28:30.616Z,49.28
2018-03-02T18:30:58.578Z,43.42
2018-03-02T18:33:26.701Z,49.67
2018-03-02T18:35:55.472Z,57.13
2018-03-02T18:38:23.452Z,54.17
2018-03-02T18:40:51.432Z,55.97
2018-03-02T18:43:20.224Z,58.28
2018-03-02T18:45:53.498Z,58.30
2018-03-02T18:48:21.586Z,60.58
2018-03-02T18:50:49.630Z,55.28
2018-03-02T18:53:17.572Z,51.95
2018-03-02T18:55:45.556Z,51.75
2018-03-02T18:58:13.498Z,59.58
2018-03-02T19:00:41.563Z,60.55
2018-03-02T19:03:09.585Z,58.70
2018-03-02T19:05:37.503Z,65.97
2018-03-02T19:08:05.553Z,57.45
2018-03-02T19:10:34.223Z,67.22
2018-03-02T19:13:02.298Z,55.55
2018-03-02T19:15:30.257Z,59.55
2018-03-02T19:17:58.742Z,53.90
2018-03-02T19:20:26.662Z,51.78
2018-03-02T19:22:54.670Z,66.72
2018-03-02T19:25:22.592Z,52.90
2018-03-02T19:27:51.309Z,63.38
2018-03-02T19:30:19.264Z,66.57
2018-03-02T19:32:47.294Z,61.55
2018-03-02T19:35:15.215Z,57.97
2018-03-02T19:37:43.232Z,52.25
2018-03-02T19:40:11.156Z,58.97
2018-03-02T19:42:42.508Z,60.53
2018-03-02T19:45:10.397Z,68.87
2018-03-02T19:47:40.298Z,57.30
2018-03-02T19:50:08.207Z,56.40
2018-03-02T19:52:36.162Z,62.50
2018-03-02T19:55:04.085Z,49.78
2018-03-02T19:57:32.039Z,58.20
2018-03-02T20:00:00.050Z,63.92
2018-03-02T20:02:28.537Z,60.38
2018-03-02T20:04:56.426Z,58.35
2018-03-02T20:07:24.325Z,55.20
2018-03-02T20:09:53.061Z,55.63
2018-03-02T20:12:28.178Z,55.75
2018-03-02T20:14:56.129Z,53.40
2018-03-02T20:17:24.093Z,59.70
2018-03-02T20:19:52.812Z,58.53
2018-03-02T20:22:20.720Z,64.43
2018-03-02T20:24:48.732Z,52.80
2018-03-02T20:27:16.738Z,62.60
2018-03-02T20:29:44.700Z,60.28
2018-03-02T20:32:12.728Z,63.85
2018-03-02T20:34:41.510Z,60.72
2018-03-02T20:37:10.360Z,64.35
2018-03-02T20:39:38.394Z,74.28
2018-03-02T20:42:06.355Z,60.12
2018-03-02T20:44:34.404Z,56.25
2018-03-02T20:47:02.474Z,68.70
2018-03-02T20:49:30.487Z,68.70
2018-03-02T20:51:58.379Z,60.15
2018-03-02T20:54:26.296Z,65.25
2018-03-02T20:56:54.215Z,58.20
2018-03-02T20:59:22.209Z,63.47
2018-03-02T21:01:50.114Z,67.87
2018-03-02T21:04:18.146Z,63.40
2018-03-02T21:06:46.175Z,70.43
2018-03-02T21:09:14.103Z,78.70
2018-03-02T21:11:42.010Z,63.22
2018-03-02T21:14:12.135Z,73.60
2018-03-02T21:16:40.146Z,73.12
2018-03-02T21:19:08.090Z,59.30
2018-03-02T21:21:38.373Z,65.57
2018-03-02T21:24:07.319Z,68.72
2018-03-02T21:26:35.383Z,71.43
2018-03-02T21:29:04.729Z,76.07
2018-03-02T21:31:32.725Z,67.80
2018-03-02T21:34:00.634Z,72.03
2018-03-02T21:36:28.644Z,74.90
2018-03-02T21:38:56.558Z,74.10
2018-03-02T21:41:24.516Z,65.53
2018-03-02T21:43:52.462Z,84.80
2018-03-02T21:46:21.284Z,88.50
2018-03-02T21:48:49.191Z,72.72
2018-03-02T21:51:17.167Z,70.28
2018-03-02T21:53:48.502Z,85.93
2018-03-02T21:56:16.478Z,74.35
2018-03-02T21:58:44.443Z,78.80
2018-03-02T22:01:12.426Z,76.45
2018-03-02T22:03:40.356Z,77.47
2018-03-02T22:06:08.340Z,64.87
2018-03-02T22:08:36.260Z,80.38
2018-03-02T22:11:05.029Z,72.50
2018-03-02T22:13:32.937Z,85.87
2018-03-02T22:16:00.895Z,70.57
2018-03-02T22:18:28.816Z,67.93
2018-03-02T22:20:56.804Z,79.82
2018-03-02T22:23:27.084Z,69.25
2018-03-02T22:25:55.057Z,85.80
2018-03-02T22:28:22.969Z,71.07
2018-03-02T22:30:50.943Z,72.70
2018-03-02T22:33:18.980Z,66.72
2018-03-02T22:35:46.887Z,77.28
2018-03-02T22:38:18.399Z,67.78
2018-03-02T22:40:46.877Z,67.28
2018-03-02T22:43:18.820Z,70.55
2018-03-02T22:45:50.268Z,80.12
2018-03-02T22:48:19.396Z,66.72
2018-03-02T22:50:50.511Z,71.15
2018-03-02T22:53:19.555Z,69.68
2018-03-02T22:55:51.629Z,67.35
2018-03-02T22:58:23.061Z,66.35
2018-03-02T23:00:50.978Z,65.53
2018-03-02T23:03:19.789Z,71.35
2018-03-02T23:05:48.427Z,73.03
2018-03-02T23:08:22.454Z,67.78
2018-03-02T23:10:50.444Z,70.75
2018-03-02T23:13:20.957Z,77.55
2018-03-02T23:15:50.898Z,72.25
2018-03-02T23:18:19.320Z,79.20
2018-03-02T23:20:47.607Z,73.85
2018-03-02T23:23:15.582Z,73.20
2018-03-02T23:25:43.508Z,73.12
2018-03-02T23:28:11.465Z,71.40
2018-03-02T23:30:39.553Z,76.07
2018-03-02T23:33:07.530Z,77.55
2018-03-02T23:35:35.438Z,74.00
2018-03-02T23:38:04.540Z,71.15
2018-03-02T23:40:32.532Z,76.25
2018-03-02T23:43:01.401Z,70.68
2018-03-02T23:45:29.324Z,76.53
2018-03-02T23:47:57.713Z,70.28
2018-03-02T23:50:25.727Z,79.60
2018-03-02T23:52:53.678Z,66.60
2018-03-02T23:55:21.583Z,73.47
2018-03-02T23:57:50.329Z,71.18
